createdAt,value
2023-01-26T00:01:20.995Z,11.18
2023-01-26T00:03:48.240Z,11.05
2023-01-26T00:06:16.741Z,13.60
2023-01-26T00:08:44.708Z,14.80
2023-01-26T00:11:13.106Z,14.25
2023-01-26T00:13:40.318Z,14.82
2023-01-26T00:16:16.282Z,13.48
2023-01-26T00:18:43.942Z,14.48
2023-01-26T00:21:15.357Z,14.93
2023-01-26T00:23:42.700Z,16.33
2023-01-26T00:26:10.784Z,15.90
2023-01-26T00:28:37.944Z,14.80
2023-01-26T00:31:05.516Z,14.38
2023-01-26T00:33:32.899Z,16.55
2023-01-26T00:35:59.936Z,15.55
2023-01-26T00:38:26.973Z,15.23
2023-01-26T00:40:54.176Z,16.80
2023-01-26T00:43:21.268Z,17.48
2023-01-26T00:45:48.347Z,16.88
2023-01-26T00:48:15.407Z,17.08
2023-01-26T00:50:42.435Z,16.65
2023-01-26T00:53:09.830Z,15.45
2023-01-26T00:55:37.146Z,16.75
2023-01-26T00:58:08.036Z,18.85
2023-01-26T01:00:35.733Z,15.80
2023-01-26T01:03:03.095Z,14.55
2023-01-26T01:05:31.279Z,16.17
2023-01-26T01:07:58.756Z,19.73
2023-01-26T01:10:27.488Z,17.92
2023-01-26T01:12:54.621Z,18.35
2023-01-26T01:15:21.659Z,16.58
2023-01-26T01:17:48.709Z,15.05
2023-01-26T01:20:15.998Z,14.00
2023-01-26T01:22:43.074Z,15.38
2023-01-26T01:25:10.362Z,13.77
2023-01-26T01:27:39.414Z,12.63
2023-01-26T01:30:08.136Z,12.65
2023-01-26T01:32:41.862Z,13.32
2023-01-26T01:35:09.095Z,13.30
2023-01-26T01:37:36.734Z,14.23
2023-01-26T01:40:04.137Z,13.98
2023-01-26T01:42:31.171Z,16.23
2023-01-26T01:45:16.892Z,15.75
2023-01-26T01:47:43.894Z,14.43
2023-01-26T01:50:15.899Z,15.77
2023-01-26T01:52:43.164Z,14.77
2023-01-26T01:55:11.251Z,16.42
2023-01-26T01:57:46.990Z,16.25
2023-01-26T02:00:19.267Z,15.60
2023-01-26T02:03:07.064Z,14.73
2023-01-26T02:05:36.199Z,15.25
2023-01-26T02:08:04.269Z,15.85
2023-01-26T02:10:41.727Z,15.60
2023-01-26T02:13:09.167Z,14.85
2023-01-26T02:15:36.677Z,17.67
2023-01-26T02:18:05.760Z,16.77
2023-01-26T02:20:44.704Z,15.55
2023-01-26T02:23:17.630Z,15.10
2023-01-26T02:25:53.524Z,14.75
2023-01-26T02:28:22.638Z,14.57
2023-01-26T02:30:49.780Z,15.95
2023-01-26T02:33:31.242Z,16.33
2023-01-26T02:35:58.505Z,14.48
2023-01-26T02:38:28.461Z,14.20
2023-01-26T02:40:57.008Z,15.95
2023-01-26T02:43:25.655Z,14.10
2023-01-26T02:45:52.864Z,14.18
2023-01-26T02:48:39.929Z,13.50
2023-01-26T02:51:07.480Z,12.77
2023-01-26T02:53:34.474Z,12.88
2023-01-26T02:56:01.608Z,12.70
2023-01-26T02:58:28.705Z,12.85
2023-01-26T03:00:55.752Z,12.20
2023-01-26T03:03:41.365Z,12.95
2023-01-26T03:06:12.603Z,12.20
2023-01-26T03:08:39.906Z,10.90
2023-01-26T03:11:07.613Z,13.60
2023-01-26T03:13:34.764Z,12.23
2023-01-26T03:16:07.057Z,13.20
2023-01-26T03:18:53.878Z,13.75
2023-01-26T03:21:39.807Z,12.77
2023-01-26T03:24:25.795Z,11.20
2023-01-26T03:27:11.526Z,11.65
2023-01-26T03:29:38.537Z,11.80
2023-01-26T03:32:05.696Z,12.45
2023-01-26T03:34:32.898Z,12.98
2023-01-26T03:37:00.259Z,12.80
2023-01-26T03:39:46.035Z,13.25
2023-01-26T03:42:31.847Z,13.02
2023-01-26T03:45:17.720Z,11.65
2023-01-26T03:48:03.741Z,12.15
2023-01-26T03:50:49.812Z,13.50
2023-01-26T03:53:36.640Z,13.45
2023-01-26T03:56:32.178Z,12.55
2023-01-26T03:59:09.393Z,13.68
2023-01-26T04:01:37.669Z,12.60
2023-01-26T04:04:24.081Z,13.55
2023-01-26T04:07:09.933Z,13.55
2023-01-26T04:09:39.383Z,13.05
2023-01-26T04:12:06.912Z,13.27
2023-01-26T04:14:52.580Z,13.65
2023-01-26T04:17:38.423Z,13.90
2023-01-26T04:20:25.395Z,13.00
2023-01-26T04:22:52.852Z,14.15
2023-01-26T04:25:20.786Z,14.52
2023-01-26T04:27:47.885Z,12.15
2023-01-26T04:30:15.824Z,15.75
2023-01-26T04:32:42.933Z,11.85
2023-01-26T04:35:10.533Z,14.55
2023-01-26T04:37:37.980Z,12.88
2023-01-26T04:40:05.451Z,14.23
2023-01-26T04:42:32.501Z,14.20
2023-01-26T04:44:59.567Z,12.88
2023-01-26T04:47:29.135Z,14.80
2023-01-26T04:49:56.417Z,14.55
2023-01-26T04:52:23.770Z,13.45
2023-01-26T04:54:50.788Z,14.80
2023-01-26T04:57:20.480Z,15.35
2023-01-26T04:59:47.602Z,15.70
2023-01-26T05:02:14.713Z,15.15
2023-01-26T05:04:41.716Z,16.20
2023-01-26T05:07:08.780Z,15.95
2023-01-26T05:09:35.913Z,15.45
2023-01-26T05:12:22.973Z,16.05
2023-01-26T05:14:49.990Z,13.50
2023-01-26T05:17:17.024Z,15.25
2023-01-26T05:19:44.017Z,16.13
2023-01-26T05:22:12.580Z,16.02
2023-01-26T05:24:39.808Z,15.77
2023-01-26T05:27:21.940Z,16.33
2023-01-26T05:29:53.257Z,17.08
2023-01-26T05:32:20.348Z,16.58
2023-01-26T05:34:47.366Z,14.73
2023-01-26T05:37:15.215Z,17.50
2023-01-26T05:39:42.470Z,16.52
2023-01-26T05:42:09.584Z,15.80
2023-01-26T05:44:36.679Z,16.58
2023-01-26T05:47:03.763Z,15.93
2023-01-26T05:49:31.007Z,15.05
2023-01-26T05:51:58.302Z,15.52
2023-01-26T05:54:25.341Z,15.70
2023-01-26T05:56:57.384Z,16.00
2023-01-26T05:59:30.506Z,16.08
2023-01-26T06:01:57.768Z,16.60
2023-01-26T06:04:25.175Z,15.85
2023-01-26T06:06:56.101Z,17.75
2023-01-26T06:09:25.184Z,16.30
2023-01-26T06:11:53.488Z,24.50
2023-01-26T06:14:20.525Z,18.42
2023-01-26T06:16:47.577Z,17.27
2023-01-26T06:19:14.687Z,17.65
2023-01-26T06:21:41.728Z,16.00
2023-01-26T06:24:08.942Z,15.45
2023-01-26T06:26:35.964Z,16.38
2023-01-26T06:29:03.255Z,17.48
2023-01-26T06:31:30.461Z,15.68
2023-01-26T06:33:57.554Z,17.05
2023-01-26T06:36:24.717Z,16.27
2023-01-26T06:38:56.573Z,13.52
2023-01-26T06:41:24.259Z,13.13
2023-01-26T06:43:51.278Z,14.40
2023-01-26T06:46:19.422Z,14.50
2023-01-26T06:48:46.787Z,14.07
2023-01-26T06:51:16.892Z,13.23
2023-01-26T06:53:44.803Z,11.50
2023-01-26T06:56:11.840Z,12.85
2023-01-26T06:58:38.949Z,14.25
2023-01-26T07:01:06.353Z,13.38
2023-01-26T07:03:33.418Z,13.15
2023-01-26T07:06:00.458Z,11.65
2023-01-26T07:08:27.568Z,12.65
2023-01-26T07:10:54.614Z,12.63
2023-01-26T07:13:21.632Z,11.30
2023-01-26T07:15:48.672Z,10.75
2023-01-26T07:18:15.704Z,11.82
2023-01-26T07:20:42.849Z,12.05
2023-01-26T07:23:11.145Z,12.15
2023-01-26T07:25:38.155Z,12.18
2023-01-26T07:28:05.241Z,10.75
2023-01-26T07:30:32.269Z,13.63
2023-01-26T07:33:00.774Z,12.23
2023-01-26T07:35:29.658Z,11.80
2023-01-26T07:37:58.582Z,11.68
2023-01-26T07:40:25.724Z,12.13
2023-01-26T07:42:52.745Z,12.77
2023-01-26T07:45:19.780Z,12.38
2023-01-26T07:47:48.055Z,16.27
2023-01-26T07:50:15.298Z,13.68
2023-01-26T07:52:43.599Z,11.63
2023-01-26T07:55:11.399Z,12.05
2023-01-26T07:57:38.421Z,11.38
2023-01-26T08:00:05.774Z,12.05
2023-01-26T08:02:32.813Z,12.32
2023-01-26T08:05:03.042Z,12.05
2023-01-26T08:07:30.047Z,13.27
2023-01-26T08:09:58.960Z,13.43
2023-01-26T08:12:26.287Z,15.25
2023-01-26T08:14:53.310Z,20.13
2023-01-26T08:17:20.397Z,15.70
2023-01-26T08:19:47.580Z,13.45
2023-01-26T08:22:14.668Z,12.55
2023-01-26T08:24:41.712Z,14.25
2023-01-26T08:27:08.741Z,12.90
2023-01-26T08:29:36.427Z,12.70
2023-01-26T08:32:03.967Z,15.75
2023-01-26T08:34:31.198Z,13.32
2023-01-26T08:36:58.586Z,13.63
2023-01-26T08:39:25.746Z,12.73
2023-01-26T08:41:52.756Z,13.02
2023-01-26T08:44:19.971Z,14.45
2023-01-26T08:46:47.084Z,13.65
2023-01-26T08:49:14.252Z,14.38
2023-01-26T08:51:42.486Z,14.93
2023-01-26T08:54:09.623Z,14.80
2023-01-26T08:56:36.864Z,13.27
2023-01-26T08:59:03.887Z,14.25
2023-01-26T09:01:30.977Z,14.70
2023-01-26T09:03:58.310Z,13.60
2023-01-26T09:06:25.477Z,15.75
2023-01-26T09:08:52.510Z,18.25
2023-01-26T09:11:19.516Z,14.18
2023-01-26T09:13:56.191Z,20.25
2023-01-26T09:16:23.811Z,16.25
2023-01-26T09:18:51.580Z,16.73
2023-01-26T09:21:18.702Z,13.98
2023-01-26T09:23:45.711Z,15.23
2023-01-26T09:26:12.941Z,15.20
2023-01-26T09:28:39.974Z,14.52
2023-01-26T09:31:08.372Z,15.75
2023-01-26T09:33:35.440Z,15.82
2023-01-26T09:36:06.425Z,14.80
2023-01-26T09:38:33.540Z,14.73
2023-01-26T09:41:20.941Z,13.77
2023-01-26T09:43:56.005Z,13.50
2023-01-26T09:46:29.944Z,13.88
2023-01-26T09:49:07.453Z,15.02
2023-01-26T09:51:39.324Z,14.25
2023-01-26T09:54:24.667Z,13.07
2023-01-26T09:56:51.773Z,12.88
2023-01-26T09:59:37.353Z,13.05
2023-01-26T10:02:23.207Z,13.35
2023-01-26T10:04:52.540Z,14.20
2023-01-26T10:07:19.563Z,14.27
2023-01-26T10:09:48.177Z,13.75
2023-01-26T10:12:29.279Z,15.93
2023-01-26T10:14:59.291Z,14.65
2023-01-26T10:17:31.218Z,14.85
2023-01-26T10:20:06.017Z,15.63
2023-01-26T10:22:39.148Z,13.82
2023-01-26T10:25:14.091Z,17.50
2023-01-26T10:27:41.192Z,14.05
2023-01-26T10:30:13.082Z,16.40
2023-01-26T10:32:42.590Z,15.25
2023-01-26T10:35:20.497Z,15.55
2023-01-26T10:37:48.078Z,15.93
2023-01-26T10:40:15.177Z,15.50
2023-01-26T10:42:42.356Z,16.67
2023-01-26T10:45:26.341Z,17.20
2023-01-26T10:48:08.568Z,17.35
2023-01-26T10:50:35.725Z,15.32
2023-01-26T10:53:05.285Z,16.85
2023-01-26T10:55:33.196Z,17.67
2023-01-26T10:58:00.730Z,15.55
2023-01-26T11:00:33.171Z,20.77
2023-01-26T11:03:06.441Z,17.75
2023-01-26T11:05:33.900Z,14.13
2023-01-26T11:08:03.006Z,16.88
2023-01-26T11:10:33.219Z,17.13
2023-01-26T11:13:08.350Z,18.23
2023-01-26T11:15:40.422Z,16.60
2023-01-26T11:18:26.244Z,15.88
2023-01-26T11:21:01.461Z,16.73
2023-01-26T11:23:40.036Z,16.10
2023-01-26T11:26:39.490Z,15.80
2023-01-26T11:29:18.777Z,14.85
2023-01-26T11:31:59.811Z,14.80
2023-01-26T11:34:45.435Z,19.27
2023-01-26T11:37:12.436Z,15.18
2023-01-26T11:39:58.831Z,15.55
2023-01-26T11:42:28.874Z,15.35
2023-01-26T11:45:09.507Z,16.45
2023-01-26T11:47:48.982Z,14.77
2023-01-26T11:50:35.312Z,18.38
2023-01-26T11:53:02.317Z,17.92
2023-01-26T11:55:52.361Z,18.23
2023-01-26T11:58:25.614Z,17.90
2023-01-26T12:00:52.610Z,17.80
2023-01-26T12:03:25.980Z,18.02
2023-01-26T12:05:54.888Z,17.65
2023-01-26T12:08:21.861Z,15.80
2023-01-26T12:10:58.795Z,17.02
2023-01-26T12:13:36.035Z,15.52
2023-01-26T12:16:07.965Z,15.15
2023-01-26T12:18:50.635Z,18.52
2023-01-26T12:21:21.047Z,17.05
2023-01-26T12:24:02.650Z,17.85
2023-01-26T12:26:32.858Z,17.10
2023-01-26T12:28:59.874Z,21.75
2023-01-26T12:31:32.778Z,18.10
2023-01-26T12:33:59.875Z,18.90
2023-01-26T12:36:32.714Z,17.52
2023-01-26T12:39:32.225Z,16.23
2023-01-26T12:42:17.531Z,18.83
2023-01-26T12:44:52.207Z,18.63
2023-01-26T12:47:23.575Z,18.00
2023-01-26T12:49:57.597Z,20.05
2023-01-26T12:52:43.599Z,21.73
2023-01-26T12:55:15.972Z,21.90
2023-01-26T12:57:56.641Z,20.38
2023-01-26T13:00:27.329Z,18.52
2023-01-26T13:02:57.486Z,20.05
2023-01-26T13:05:25.693Z,20.50
2023-01-26T13:07:52.877Z,20.15
2023-01-26T13:10:21.597Z,22.75
2023-01-26T13:12:59.648Z,23.58
2023-01-26T13:15:31.089Z,22.27
2023-01-26T13:18:00.126Z,21.40
2023-01-26T13:20:29.214Z,23.80
2023-01-26T13:22:56.791Z,20.73
2023-01-26T13:25:31.525Z,21.85
2023-01-26T13:28:00.027Z,24.20
2023-01-26T13:30:27.163Z,21.60
2023-01-26T13:32:54.273Z,23.60
2023-01-26T13:35:22.859Z,24.45
2023-01-26T13:37:52.996Z,22.67
2023-01-26T13:40:34.831Z,24.95
2023-01-26T13:43:26.274Z,22.48
2023-01-26T13:45:57.145Z,23.30
2023-01-26T13:48:44.468Z,23.15
2023-01-26T13:51:16.948Z,26.60
2023-01-26T13:54:01.561Z,21.98
2023-01-26T13:56:39.256Z,22.00
2023-01-26T13:59:12.749Z,22.60
2023-01-26T14:01:43.958Z,20.52
2023-01-26T14:04:14.263Z,20.55
2023-01-26T14:06:42.555Z,22.50
2023-01-26T14:09:12.163Z,24.40
2023-01-26T14:11:39.372Z,23.58
2023-01-26T14:14:07.241Z,23.48
2023-01-26T14:16:37.941Z,24.42
2023-01-26T14:19:18.183Z,23.30
2023-01-26T14:21:46.431Z,22.65
2023-01-26T14:24:13.636Z,21.25
2023-01-26T14:26:41.026Z,23.02
2023-01-26T14:29:13.171Z,21.55
2023-01-26T14:31:40.544Z,20.60
2023-01-26T14:34:09.903Z,20.75
2023-01-26T14:36:39.735Z,21.33
2023-01-26T14:39:17.355Z,18.85
2023-01-26T14:41:44.577Z,17.73
2023-01-26T14:44:11.862Z,17.50
2023-01-26T14:47:01.065Z,17.45
2023-01-26T14:49:42.834Z,16.30
2023-01-26T14:52:38.642Z,14.55
2023-01-26T14:55:13.876Z,15.05
2023-01-26T14:57:41.231Z,14.10
2023-01-26T15:00:10.265Z,14.25
2023-01-26T15:02:39.162Z,14.82
2023-01-26T15:05:13.949Z,14.60
2023-01-26T15:07:48.178Z,14.27
2023-01-26T15:10:27.271Z,13.95
2023-01-26T15:12:58.799Z,12.23
2023-01-26T15:15:30.776Z,12.38
2023-01-26T15:18:04.959Z,11.88
2023-01-26T15:20:33.147Z,10.50
2023-01-26T15:23:00.192Z,10.05
2023-01-26T15:25:28.832Z,9.18
2023-01-26T15:27:58.813Z,10.30
2023-01-26T15:30:28.160Z,9.80
2023-01-26T15:32:55.267Z,10.95
2023-01-26T15:35:26.780Z,9.85
2023-01-26T15:38:04.378Z,10.93
2023-01-26T15:40:31.872Z,13.27
2023-01-26T15:43:18.470Z,11.88
2023-01-26T15:45:55.819Z,13.75
2023-01-26T15:48:24.176Z,10.70
2023-01-26T15:50:51.325Z,10.50
2023-01-26T15:53:22.077Z,10.15
2023-01-26T15:55:52.671Z,10.20
2023-01-26T15:58:19.965Z,11.43
2023-01-26T16:00:47.343Z,9.98
2023-01-26T16:03:16.524Z,10.85
2023-01-26T16:05:44.182Z,11.63
2023-01-26T16:08:11.203Z,11.65
2023-01-26T16:10:38.771Z,11.20
2023-01-26T16:13:09.943Z,11.75
2023-01-26T16:15:42.330Z,13.25
2023-01-26T16:18:09.716Z,12.60
2023-01-26T16:20:37.457Z,11.40
2023-01-26T16:23:04.685Z,12.27
2023-01-26T16:25:32.505Z,13.73
2023-01-26T16:27:59.995Z,12.18
2023-01-26T16:30:27.197Z,11.73
2023-01-26T16:32:54.281Z,10.32
2023-01-26T16:35:22.369Z,15.75
2023-01-26T16:37:49.463Z,13.75
2023-01-26T16:40:17.650Z,12.80
2023-01-26T16:42:47.036Z,12.13
2023-01-26T16:45:24.460Z,11.23
2023-01-26T16:47:57.230Z,13.55
2023-01-26T16:50:25.182Z,13.25
2023-01-26T16:52:52.884Z,12.55
2023-01-26T16:55:20.087Z,10.43
2023-01-26T16:57:49.857Z,12.27
2023-01-26T17:00:18.236Z,10.75
2023-01-26T17:02:48.299Z,9.57
2023-01-26T17:05:16.689Z,10.00
2023-01-26T17:07:44.026Z,10.80
2023-01-26T17:10:11.985Z,9.45
2023-01-26T17:12:39.157Z,11.65
2023-01-26T17:15:07.131Z,10.63
2023-01-26T17:17:34.545Z,11.65
2023-01-26T17:20:17.659Z,10.18
2023-01-26T17:22:45.750Z,10.82
2023-01-26T17:25:16.001Z,12.55
2023-01-26T17:27:44.500Z,11.63
2023-01-26T17:30:11.632Z,13.10
2023-01-26T17:32:38.686Z,13.75
2023-01-26T17:35:05.899Z,14.10
2023-01-26T17:37:32.966Z,12.80
2023-01-26T17:40:00.109Z,12.43
2023-01-26T17:42:28.691Z,12.98
2023-01-26T17:44:57.714Z,12.30
2023-01-26T17:47:24.769Z,13.05
2023-01-26T17:49:51.899Z,12.57
2023-01-26T17:52:18.983Z,13.23
2023-01-26T17:54:46.208Z,12.48
2023-01-26T17:57:15.045Z,13.52
2023-01-26T17:59:42.065Z,12.23
2023-01-26T18:02:10.596Z,12.88
2023-01-26T18:04:37.667Z,13.57
2023-01-26T18:07:04.877Z,16.85
2023-01-26T18:09:31.908Z,14.80
2023-01-26T18:11:58.932Z,13.05
2023-01-26T18:14:25.957Z,12.98
2023-01-26T18:16:53.027Z,10.45
2023-01-26T18:19:20.111Z,13.00
2023-01-26T18:21:49.042Z,10.98
2023-01-26T18:24:17.933Z,11.75
2023-01-26T18:26:45.178Z,11.65
2023-01-26T18:29:12.474Z,13.77
2023-01-26T18:31:40.843Z,14.07
2023-01-26T18:34:07.918Z,12.50
2023-01-26T18:36:35.299Z,11.68
2023-01-26T18:39:03.584Z,11.60
2023-01-26T18:41:31.056Z,11.70
2023-01-26T18:43:58.467Z,11.77
2023-01-26T18:46:26.016Z,11.05
2023-01-26T18:48:54.083Z,12.30
2023-01-26T18:51:22.604Z,10.48
2023-01-26T18:53:49.931Z,9.15
2023-01-26T18:56:17.468Z,10.82
2023-01-26T18:58:44.724Z,10.43
2023-01-26T19:01:12.968Z,9.50
2023-01-26T19:03:55.138Z,9.75
2023-01-26T19:06:23.003Z,11.00
2023-01-26T19:08:59.283Z,11.00
2023-01-26T19:11:27.735Z,11.75
2023-01-26T19:13:55.387Z,11.05
2023-01-26T19:16:23.913Z,12.27
2023-01-26T19:18:51.798Z,12.30
2023-01-26T19:21:21.586Z,12.60
2023-01-26T19:23:49.438Z,9.82
2023-01-26T19:26:18.075Z,9.10
2023-01-26T19:28:45.251Z,9.23
2023-01-26T19:31:12.878Z,9.82
2023-01-26T19:33:40.456Z,10.20
2023-01-26T19:36:07.951Z,9.40
2023-01-26T19:38:36.182Z,9.80
2023-01-26T19:41:03.354Z,10.10
2023-01-26T19:43:30.380Z,9.90
2023-01-26T19:45:57.544Z,8.40
2023-01-26T19:48:25.903Z,9.27
2023-01-26T19:51:00.673Z,8.25
2023-01-26T19:53:27.995Z,13.05
2023-01-26T19:55:55.168Z,10.70
2023-01-26T19:58:22.221Z,10.48
2023-01-26T20:00:49.339Z,8.30
2023-01-26T20:03:16.369Z,7.88
2023-01-26T20:05:43.520Z,9.25
2023-01-26T20:08:10.595Z,8.45
2023-01-26T20:10:37.626Z,8.23
2023-01-26T20:13:04.662Z,10.60
2023-01-26T20:15:35.412Z,9.10
2023-01-26T20:18:03.426Z,8.57
2023-01-26T20:20:31.012Z,8.20
2023-01-26T20:23:04.142Z,7.72
2023-01-26T20:25:31.229Z,8.25
2023-01-26T20:27:58.261Z,9.48
2023-01-26T20:30:25.575Z,9.85
2023-01-26T20:32:53.841Z,8.15
2023-01-26T20:35:21.544Z,8.95
2023-01-26T20:37:48.274Z,7.40
2023-01-26T20:40:15.232Z,8.25
2023-01-26T20:42:41.976Z,8.15
2023-01-26T20:45:09.592Z,8.27
2023-01-26T20:47:39.098Z,9.30
2023-01-26T20:50:06.459Z,8.20
2023-01-26T20:52:33.368Z,8.82
2023-01-26T20:55:01.967Z,7.50
2023-01-26T20:57:29.255Z,9.32
2023-01-26T20:59:55.943Z,8.48
2023-01-26T21:02:22.618Z,9.60
2023-01-26T21:04:49.915Z,10.18
2023-01-26T21:07:16.696Z,11.13
2023-01-26T21:09:43.346Z,9.02
2023-01-26T21:12:09.955Z,9.02
2023-01-26T21:14:36.599Z,8.60
2023-01-26T21:17:03.592Z,8.63
2023-01-26T21:19:31.247Z,9.35
2023-01-26T21:21:59.309Z,7.75
2023-01-26T21:24:26.253Z,7.72
2023-01-26T21:26:52.863Z,9.20
2023-01-26T21:29:19.479Z,6.72
2023-01-26T21:31:46.100Z,7.68
2023-01-26T21:34:12.853Z,8.15
2023-01-26T21:36:39.503Z,8.40
2023-01-26T21:39:10.640Z,8.25
2023-01-26T21:41:55.732Z,10.00
2023-01-26T21:44:32.597Z,8.35
2023-01-26T21:47:06.608Z,7.75
2023-01-26T21:49:33.195Z,7.90
2023-01-26T21:52:18.226Z,7.60
2023-01-26T21:54:44.897Z,8.20
2023-01-26T21:57:30.300Z,8.50
2023-01-26T21:59:56.968Z,9.60
2023-01-26T22:02:26.407Z,10.18
2023-01-26T22:04:53.061Z,8.20
2023-01-26T22:07:19.865Z,8.80
2023-01-26T22:09:46.595Z,8.18
2023-01-26T22:12:13.217Z,9.93
2023-01-26T22:14:39.901Z,10.35
2023-01-26T22:17:06.641Z,10.20
2023-01-26T22:19:33.278Z,9.10
2023-01-26T22:21:59.882Z,10.32
2023-01-26T22:24:26.941Z,9.40
2023-01-26T22:26:53.975Z,9.07
2023-01-26T22:29:21.098Z,9.07
2023-01-26T22:31:47.825Z,9.00
2023-01-26T22:34:14.455Z,8.52
2023-01-26T22:36:41.290Z,9.15
2023-01-26T22:39:08.629Z,8.80
2023-01-26T22:41:35.912Z,9.60
2023-01-26T22:44:02.703Z,11.40
2023-01-26T22:46:31.009Z,12.52
2023-01-26T22:48:58.667Z,11.50
2023-01-26T22:51:30.597Z,10.70
2023-01-26T22:53:58.772Z,9.77
2023-01-26T22:56:26.521Z,20.00
2023-01-26T22:58:58.931Z,13.27
2023-01-26T23:01:28.308Z,10.13
2023-01-26T23:03:57.080Z,10.27
2023-01-26T23:06:25.560Z,10.80
2023-01-26T23:08:52.656Z,11.75
2023-01-26T23:11:21.107Z,10.55
2023-01-26T23:13:48.903Z,10.95
2023-01-26T23:16:16.297Z,10.95
2023-01-26T23:18:43.425Z,12.15
2023-01-26T23:21:10.863Z,10.90
2023-01-26T23:23:39.164Z,10.65
2023-01-26T23:26:06.803Z,10.93
2023-01-26T23:28:36.676Z,11.23
2023-01-26T23:31:05.731Z,9.32
2023-01-26T23:33:33.851Z,9.75
2023-01-26T23:36:00.866Z,10.65
2023-01-26T23:38:29.301Z,11.02
2023-01-26T23:40:56.213Z,11.57
2023-01-26T23:43:23.700Z,11.25
2023-01-26T23:45:50.799Z,9.52
2023-01-26T23:48:19.099Z,9.30
2023-01-26T23:50:46.307Z,9.10
2023-01-26T23:53:13.543Z,9.82
2023-01-26T23:55:44.056Z,9.18
2023-01-26T23:58:11.984Z,10.07
